sensor_id;sensor_type;location;lat;lon;timestamp;P1;durP1;ratioP1;P2;durP2;ratioP2
11539;SDS011;5826;54.756;9.192;2023-08-07T00:00:17;1.60;;;1.33;;
11539;SDS011;5826;54.756;9.192;2023-08-07T00:02:42;1.38;;;1.27;;
11539;SDS011;5826;54.756;9.192;2023-08-07T00:05:08;1.65;;;1.30;;
11539;SDS011;5826;54.756;9.192;2023-08-07T00:07:33;2.55;;;1.45;;
11539;SDS011;5826;54.756;9.192;2023-08-07T00:09:59;1.70;;;1.13;;
11539;SDS011;5826;54.756;9.192;2023-08-07T00:12:26;1.52;;;1.42;;
11539;SDS011;5826;54.756;9.192;2023-08-07T00:14:52;1.65;;;1.27;;
11539;SDS011;5826;54.756;9.192;2023-08-07T00:17:17;1.98;;;1.27;;
11539;SDS011;5826;54.756;9.192;2023-08-07T00:19:43;2.25;;;1.45;;
11539;SDS011;5826;54.756;9.192;2023-08-07T00:22:08;1.80;;;1.50;;
11539;SDS011;5826;54.756;9.192;2023-08-07T00:24:34;1.92;;;1.40;;
11539;SDS011;5826;54.756;9.192;2023-08-07T00:27:00;1.58;;;1.35;;
11539;SDS011;5826;54.756;9.192;2023-08-07T00:29:25;1.58;;;1.30;;
11539;SDS011;5826;54.756;9.192;2023-08-07T00:31:51;1.65;;;1.50;;
11539;SDS011;5826;54.756;9.192;2023-08-07T00:34:17;1.85;;;1.48;;
11539;SDS011;5826;54.756;9.192;2023-08-07T00:36:42;2.17;;;1.45;;
11539;SDS011;5826;54.756;9.192;2023-08-07T00:39:08;2.33;;;1.48;;
11539;SDS011;5826;54.756;9.192;2023-08-07T00:41:33;1.60;;;1.42;;
11539;SDS011;5826;54.756;9.192;2023-08-07T00:43:59;1.27;;;1.17;;
11539;SDS011;5826;54.756;9.192;2023-08-07T00:46:25;2.15;;;1.63;;
11539;SDS011;5826;54.756;9.192;2023-08-07T00:48:52;2.35;;;1.58;;
11539;SDS011;5826;54.756;9.192;2023-08-07T00:51:18;1.50;;;1.40;;
11539;SDS011;5826;54.756;9.192;2023-08-07T00:53:45;1.58;;;1.48;;
11539;SDS011;5826;54.756;9.192;2023-08-07T00:56:12;2.42;;;1.40;;
11539;SDS011;5826;54.756;9.192;2023-08-07T00:58:38;2.70;;;1.40;;
11539;SDS011;5826;54.756;9.192;2023-08-07T01:01:04;2.92;;;2.00;;
11539;SDS011;5826;54.756;9.192;2023-08-07T01:03:30;2.42;;;1.70;;
11539;SDS011;5826;54.756;9.192;2023-08-07T01:05:56;1.65;;;1.40;;
11539;SDS011;5826;54.756;9.192;2023-08-07T01:08:22;2.15;;;1.70;;
11539;SDS011;5826;54.756;9.192;2023-08-07T01:13:37;2.45;;;1.40;;
11539;SDS011;5826;54.756;9.192;2023-08-07T01:16:10;2.75;;;1.60;;
11539;SDS011;5826;54.756;9.192;2023-08-07T01:18:43;2.00;;;1.35;;
11539;SDS011;5826;54.756;9.192;2023-08-07T01:21:17;2.75;;;1.42;;
11539;SDS011;5826;54.756;9.192;2023-08-07T01:23:45;1.55;;;1.45;;
11539;SDS011;5826;54.756;9.192;2023-08-07T01:26:12;2.17;;;1.40;;
11539;SDS011;5826;54.756;9.192;2023-08-07T01:28:38;2.50;;;1.60;;
11539;SDS011;5826;54.756;9.192;2023-08-07T01:31:11;2.38;;;1.70;;
11539;SDS011;5826;54.756;9.192;2023-08-07T01:33:48;1.98;;;1.50;;
11539;SDS011;5826;54.756;9.192;2023-08-07T01:36:21;2.13;;;1.40;;
11539;SDS011;5826;54.756;9.192;2023-08-07T01:38:49;2.08;;;1.40;;
11539;SDS011;5826;54.756;9.192;2023-08-07T01:41:17;2.65;;;1.45;;
11539;SDS011;5826;54.756;9.192;2023-08-07T01:43:43;1.40;;;1.30;;
11539;SDS011;5826;54.756;9.192;2023-08-07T01:46:10;2.33;;;1.30;;
11539;SDS011;5826;54.756;9.192;2023-08-07T01:48:35;1.52;;;1.10;;
11539;SDS011;5826;54.756;9.192;2023-08-07T01:51:01;1.67;;;1.58;;
11539;SDS011;5826;54.756;9.192;2023-08-07T01:53:27;1.88;;;1.10;;
11539;SDS011;5826;54.756;9.192;2023-08-07T01:55:52;2.60;;;1.50;;
11539;SDS011;5826;54.756;9.192;2023-08-07T01:58:18;3.80;;;1.40;;
11539;SDS011;5826;54.756;9.192;2023-08-07T02:00:43;2.22;;;1.10;;
11539;SDS011;5826;54.756;9.192;2023-08-07T02:03:09;3.20;;;1.67;;
11539;SDS011;5826;54.756;9.192;2023-08-07T02:05:34;2.40;;;1.40;;
11539;SDS011;5826;54.756;9.192;2023-08-07T02:08:00;2.63;;;1.20;;
11539;SDS011;5826;54.756;9.192;2023-08-07T02:10:25;2.10;;;1.15;;
11539;SDS011;5826;54.756;9.192;2023-08-07T02:12:51;1.92;;;1.25;;
11539;SDS011;5826;54.756;9.192;2023-08-07T02:15:16;1.60;;;1.20;;
11539;SDS011;5826;54.756;9.192;2023-08-07T02:17:42;1.45;;;1.27;;
11539;SDS011;5826;54.756;9.192;2023-08-07T02:20:08;2.88;;;1.30;;
11539;SDS011;5826;54.756;9.192;2023-08-07T02:22:34;2.10;;;1.27;;
11539;SDS011;5826;54.756;9.192;2023-08-07T02:24:59;1.73;;;1.40;;
11539;SDS011;5826;54.756;9.192;2023-08-07T02:27:25;2.28;;;1.17;;
11539;SDS011;5826;54.756;9.192;2023-08-07T02:29:50;3.42;;;1.48;;
11539;SDS011;5826;54.756;9.192;2023-08-07T02:32:16;1.77;;;1.10;;
11539;SDS011;5826;54.756;9.192;2023-08-07T02:34:41;1.42;;;1.30;;
11539;SDS011;5826;54.756;9.192;2023-08-07T02:37:07;1.77;;;1.02;;
11539;SDS011;5826;54.756;9.192;2023-08-07T02:39:33;2.25;;;1.30;;
11539;SDS011;5826;54.756;9.192;2023-08-07T02:41:58;2.20;;;1.23;;
11539;SDS011;5826;54.756;9.192;2023-08-07T02:44:24;2.70;;;1.30;;
11539;SDS011;5826;54.756;9.192;2023-08-07T02:46:49;2.67;;;1.40;;
11539;SDS011;5826;54.756;9.192;2023-08-07T02:49:15;1.70;;;1.20;;
11539;SDS011;5826;54.756;9.192;2023-08-07T02:51:40;1.75;;;1.20;;
11539;SDS011;5826;54.756;9.192;2023-08-07T02:54:06;1.48;;;1.20;;
11539;SDS011;5826;54.756;9.192;2023-08-07T02:56:32;2.25;;;1.20;;
11539;SDS011;5826;54.756;9.192;2023-08-07T02:58:57;1.65;;;1.25;;
11539;SDS011;5826;54.756;9.192;2023-08-07T03:01:24;1.88;;;1.25;;
11539;SDS011;5826;54.756;9.192;2023-08-07T03:03:49;3.10;;;1.42;;
11539;SDS011;5826;54.756;9.192;2023-08-07T03:06:15;2.70;;;1.40;;
11539;SDS011;5826;54.756;9.192;2023-08-07T03:08:40;2.75;;;1.58;;
11539;SDS011;5826;54.756;9.192;2023-08-07T03:11:07;2.40;;;1.30;;
11539;SDS011;5826;54.756;9.192;2023-08-07T03:13:33;1.88;;;1.20;;
11539;SDS011;5826;54.756;9.192;2023-08-07T03:16:02;2.88;;;1.40;;
11539;SDS011;5826;54.756;9.192;2023-08-07T03:18:29;3.90;;;1.63;;
11539;SDS011;5826;54.756;9.192;2023-08-07T03:20:55;2.58;;;1.50;;
11539;SDS011;5826;54.756;9.192;2023-08-07T03:23:21;3.25;;;1.58;;
11539;SDS011;5826;54.756;9.192;2023-08-07T03:25:47;2.45;;;1.42;;
11539;SDS011;5826;54.756;9.192;2023-08-07T03:28:13;2.80;;;1.58;;
11539;SDS011;5826;54.756;9.192;2023-08-07T03:30:38;2.85;;;1.50;;
11539;SDS011;5826;54.756;9.192;2023-08-07T03:33:04;4.03;;;1.73;;
11539;SDS011;5826;54.756;9.192;2023-08-07T03:35:29;6.55;;;1.95;;
11539;SDS011;5826;54.756;9.192;2023-08-07T03:37:55;4.10;;;1.67;;
11539;SDS011;5826;54.756;9.192;2023-08-07T03:40:20;3.38;;;1.50;;
11539;SDS011;5826;54.756;9.192;2023-08-07T03:42:46;2.42;;;1.80;;
11539;SDS011;5826;54.756;9.192;2023-08-07T03:45:11;3.58;;;1.75;;
11539;SDS011;5826;54.756;9.192;2023-08-07T03:47:37;3.67;;;1.90;;
11539;SDS011;5826;54.756;9.192;2023-08-07T03:50:02;1.75;;;1.30;;
11539;SDS011;5826;54.756;9.192;2023-08-07T03:52:28;2.78;;;1.60;;
11539;SDS011;5826;54.756;9.192;2023-08-07T03:54:53;4.40;;;1.75;;
11539;SDS011;5826;54.756;9.192;2023-08-07T03:57:19;4.20;;;1.52;;
11539;SDS011;5826;54.756;9.192;2023-08-07T03:59:44;2.78;;;1.58;;
11539;SDS011;5826;54.756;9.192;2023-08-07T04:02:10;6.45;;;1.95;;
11539;SDS011;5826;54.756;9.192;2023-08-07T04:04:35;3.97;;;1.63;;
11539;SDS011;5826;54.756;9.192;2023-08-07T04:07:01;5.95;;;2.20;;
11539;SDS011;5826;54.756;9.192;2023-08-07T04:09:27;4.97;;;1.95;;
11539;SDS011;5826;54.756;9.192;2023-08-07T04:11:52;9.20;;;2.60;;
11539;SDS011;5826;54.756;9.192;2023-08-07T04:14:18;5.30;;;1.80;;
11539;SDS011;5826;54.756;9.192;2023-08-07T04:16:43;5.22;;;2.10;;
11539;SDS011;5826;54.756;9.192;2023-08-07T04:19:08;5.22;;;1.88;;
11539;SDS011;5826;54.756;9.192;2023-08-07T04:21:35;2.53;;;1.63;;
11539;SDS011;5826;54.756;9.192;2023-08-07T04:24:00;5.90;;;2.22;;
11539;SDS011;5826;54.756;9.192;2023-08-07T04:26:26;3.22;;;1.70;;
11539;SDS011;5826;54.756;9.192;2023-08-07T04:28:52;5.65;;;2.83;;
11539;SDS011;5826;54.756;9.192;2023-08-07T04:31:17;5.47;;;2.50;;
11539;SDS011;5826;54.756;9.192;2023-08-07T04:33:43;6.35;;;2.33;;
11539;SDS011;5826;54.756;9.192;2023-08-07T04:36:08;4.88;;;2.30;;
11539;SDS011;5826;54.756;9.192;2023-08-07T04:38:34;6.88;;;2.25;;
11539;SDS011;5826;54.756;9.192;2023-08-07T04:40:59;6.75;;;2.40;;
11539;SDS011;5826;54.756;9.192;2023-08-07T04:43:25;7.68;;;2.45;;
11539;SDS011;5826;54.756;9.192;2023-08-07T04:45:50;9.63;;;2.90;;
11539;SDS011;5826;54.756;9.192;2023-08-07T04:48:16;4.05;;;1.98;;
11539;SDS011;5826;54.756;9.192;2023-08-07T04:50:42;6.13;;;2.33;;
11539;SDS011;5826;54.756;9.192;2023-08-07T04:53:08;6.75;;;2.30;;
11539;SDS011;5826;54.756;9.192;2023-08-07T04:55:33;4.80;;;2.08;;
11539;SDS011;5826;54.756;9.192;2023-08-07T04:57:59;10.00;;;2.63;;
11539;SDS011;5826;54.756;9.192;2023-08-07T05:00:24;6.60;;;2.65;;
11539;SDS011;5826;54.756;9.192;2023-08-07T05:02:50;7.13;;;2.83;;
11539;SDS011;5826;54.756;9.192;2023-08-07T05:05:16;6.68;;;2.50;;
11539;SDS011;5826;54.756;9.192;2023-08-07T05:07:45;5.95;;;2.33;;
11539;SDS011;5826;54.756;9.192;2023-08-07T05:10:11;5.85;;;2.20;;
11539;SDS011;5826;54.756;9.192;2023-08-07T05:12:37;5.60;;;2.22;;
11539;SDS011;5826;54.756;9.192;2023-08-07T05:15:02;9.30;;;2.67;;
11539;SDS011;5826;54.756;9.192;2023-08-07T05:17:28;8.80;;;2.85;;
11539;SDS011;5826;54.756;9.192;2023-08-07T05:19:53;10.13;;;2.80;;
11539;SDS011;5826;54.756;9.192;2023-08-07T05:22:19;5.75;;;2.47;;
11539;SDS011;5826;54.756;9.192;2023-08-07T05:24:44;5.50;;;2.40;;
11539;SDS011;5826;54.756;9.192;2023-08-07T05:27:10;5.80;;;2.42;;
11539;SDS011;5826;54.756;9.192;2023-08-07T05:29:36;8.80;;;2.92;;
11539;SDS011;5826;54.756;9.192;2023-08-07T05:32:08;6.53;;;2.33;;
11539;SDS011;5826;54.756;9.192;2023-08-07T05:34:37;5.40;;;2.60;;
11539;SDS011;5826;54.756;9.192;2023-08-07T05:37:03;10.23;;;3.03;;
11539;SDS011;5826;54.756;9.192;2023-08-07T05:39:29;8.25;;;2.67;;
11539;SDS011;5826;54.756;9.192;2023-08-07T05:41:54;6.25;;;2.90;;
11539;SDS011;5826;54.756;9.192;2023-08-07T05:44:22;7.82;;;2.50;;
11539;SDS011;5826;54.756;9.192;2023-08-07T05:46:48;9.13;;;2.85;;
11539;SDS011;5826;54.756;9.192;2023-08-07T05:49:14;10.18;;;2.83;;
11539;SDS011;5826;54.756;9.192;2023-08-07T05:51:40;8.15;;;2.58;;
11539;SDS011;5826;54.756;9.192;2023-08-07T05:54:05;7.63;;;2.63;;
11539;SDS011;5826;54.756;9.192;2023-08-07T05:56:31;8.20;;;3.00;;
11539;SDS011;5826;54.756;9.192;2023-08-07T05:58:56;5.60;;;2.58;;
11539;SDS011;5826;54.756;9.192;2023-08-07T06:01:22;4.95;;;2.45;;
11539;SDS011;5826;54.756;9.192;2023-08-07T06:03:48;7.55;;;2.88;;
11539;SDS011;5826;54.756;9.192;2023-08-07T06:06:13;7.95;;;2.63;;
11539;SDS011;5826;54.756;9.192;2023-08-07T06:08:39;9.25;;;2.78;;
11539;SDS011;5826;54.756;9.192;2023-08-07T06:11:04;9.13;;;3.00;;
11539;SDS011;5826;54.756;9.192;2023-08-07T06:13:33;7.35;;;2.50;;
11539;SDS011;5826;54.756;9.192;2023-08-07T06:15:58;7.53;;;2.72;;
11539;SDS011;5826;54.756;9.192;2023-08-07T06:18:24;9.00;;;2.67;;
11539;SDS011;5826;54.756;9.192;2023-08-07T06:20:49;8.88;;;2.63;;
11539;SDS011;5826;54.756;9.192;2023-08-07T06:23:15;7.22;;;2.58;;
11539;SDS011;5826;54.756;9.192;2023-08-07T06:25:40;6.00;;;2.63;;
11539;SDS011;5826;54.756;9.192;2023-08-07T06:28:06;6.70;;;2.78;;
11539;SDS011;5826;54.756;9.192;2023-08-07T06:30:31;9.15;;;2.78;;
11539;SDS011;5826;54.756;9.192;2023-08-07T06:32:57;7.50;;;2.42;;
11539;SDS011;5826;54.756;9.192;2023-08-07T06:35:22;9.55;;;2.95;;
11539;SDS011;5826;54.756;9.192;2023-08-07T06:37:48;9.20;;;2.80;;
11539;SDS011;5826;54.756;9.192;2023-08-07T06:40:13;5.63;;;2.70;;
11539;SDS011;5826;54.756;9.192;2023-08-07T06:42:39;6.22;;;2.67;;
11539;SDS011;5826;54.756;9.192;2023-08-07T06:45:05;7.55;;;2.35;;
11539;SDS011;5826;54.756;9.192;2023-08-07T06:47:31;7.55;;;2.72;;
11539;SDS011;5826;54.756;9.192;2023-08-07T06:49:57;7.88;;;2.70;;
11539;SDS011;5826;54.756;9.192;2023-08-07T06:52:22;6.85;;;2.55;;
11539;SDS011;5826;54.756;9.192;2023-08-07T06:54:48;7.65;;;3.05;;
11539;SDS011;5826;54.756;9.192;2023-08-07T06:57:13;8.75;;;3.15;;
11539;SDS011;5826;54.756;9.192;2023-08-07T06:59:39;9.85;;;3.47;;
11539;SDS011;5826;54.756;9.192;2023-08-07T07:02:05;8.57;;;2.85;;
11539;SDS011;5826;54.756;9.192;2023-08-07T07:04:31;5.10;;;2.53;;
11539;SDS011;5826;54.756;9.192;2023-08-07T07:06:57;8.55;;;3.05;;
11539;SDS011;5826;54.756;9.192;2023-08-07T07:09:23;10.88;;;3.20;;
11539;SDS011;5826;54.756;9.192;2023-08-07T07:11:49;4.93;;;2.42;;
11539;SDS011;5826;54.756;9.192;2023-08-07T07:14:15;6.18;;;2.50;;
11539;SDS011;5826;54.756;9.192;2023-08-07T07:16:40;8.90;;;3.40;;
11539;SDS011;5826;54.756;9.192;2023-08-07T07:19:07;5.35;;;2.70;;
11539;SDS011;5826;54.756;9.192;2023-08-07T07:21:34;8.55;;;3.00;;
11539;SDS011;5826;54.756;9.192;2023-08-07T07:24:01;6.32;;;2.40;;
11539;SDS011;5826;54.756;9.192;2023-08-07T07:26:27;5.68;;;2.60;;
11539;SDS011;5826;54.756;9.192;2023-08-07T07:28:52;7.55;;;2.88;;
11539;SDS011;5826;54.756;9.192;2023-08-07T07:31:18;8.85;;;2.72;;
11539;SDS011;5826;54.756;9.192;2023-08-07T07:33:43;6.88;;;2.92;;
11539;SDS011;5826;54.756;9.192;2023-08-07T07:36:16;7.63;;;2.70;;
11539;SDS011;5826;54.756;9.192;2023-08-07T07:38:41;10.85;;;2.92;;
11539;SDS011;5826;54.756;9.192;2023-08-07T07:41:08;8.35;;;3.25;;
11539;SDS011;5826;54.756;9.192;2023-08-07T07:43:36;7.35;;;2.40;;
11539;SDS011;5826;54.756;9.192;2023-08-07T07:46:02;9.45;;;3.20;;
11539;SDS011;5826;54.756;9.192;2023-08-07T07:48:27;7.28;;;2.78;;
11539;SDS011;5826;54.756;9.192;2023-08-07T07:50:58;6.95;;;2.55;;
11539;SDS011;5826;54.756;9.192;2023-08-07T07:53:27;5.88;;;2.80;;
11539;SDS011;5826;54.756;9.192;2023-08-07T07:55:52;6.85;;;2.60;;
11539;SDS011;5826;54.756;9.192;2023-08-07T07:58:19;7.95;;;2.60;;
11539;SDS011;5826;54.756;9.192;2023-08-07T08:00:45;7.40;;;2.88;;
11539;SDS011;5826;54.756;9.192;2023-08-07T08:03:11;6.82;;;2.80;;
11539;SDS011;5826;54.756;9.192;2023-08-07T08:05:37;7.57;;;2.80;;
11539;SDS011;5826;54.756;9.192;2023-08-07T08:08:03;7.50;;;2.42;;
11539;SDS011;5826;54.756;9.192;2023-08-07T08:10:28;5.35;;;2.75;;
11539;SDS011;5826;54.756;9.192;2023-08-07T08:12:54;10.48;;;2.65;;
11539;SDS011;5826;54.756;9.192;2023-08-07T08:15:20;8.10;;;2.53;;
11539;SDS011;5826;54.756;9.192;2023-08-07T08:17:46;9.10;;;3.17;;
11539;SDS011;5826;54.756;9.192;2023-08-07T08:20:13;10.23;;;3.25;;
11539;SDS011;5826;54.756;9.192;2023-08-07T08:22:45;5.55;;;2.55;;
11539;SDS011;5826;54.756;9.192;2023-08-07T08:25:11;9.55;;;2.88;;
11539;SDS011;5826;54.756;9.192;2023-08-07T08:27:38;8.77;;;2.67;;
11539;SDS011;5826;54.756;9.192;2023-08-07T08:30:03;5.35;;;2.60;;
11539;SDS011;5826;54.756;9.192;2023-08-07T08:32:29;6.50;;;2.75;;
11539;SDS011;5826;54.756;9.192;2023-08-07T08:34:55;8.23;;;2.75;;
11539;SDS011;5826;54.756;9.192;2023-08-07T08:37:21;5.63;;;2.60;;
11539;SDS011;5826;54.756;9.192;2023-08-07T08:39:46;5.88;;;2.42;;
11539;SDS011;5826;54.756;9.192;2023-08-07T08:42:12;7.28;;;2.90;;
11539;SDS011;5826;54.756;9.192;2023-08-07T08:44:38;9.18;;;3.20;;
11539;SDS011;5826;54.756;9.192;2023-08-07T08:47:04;8.40;;;2.97;;
11539;SDS011;5826;54.756;9.192;2023-08-07T08:49:35;9.80;;;2.92;;
11539;SDS011;5826;54.756;9.192;2023-08-07T08:52:07;7.13;;;2.50;;
11539;SDS011;5826;54.756;9.192;2023-08-07T08:54:33;8.18;;;2.83;;
11539;SDS011;5826;54.756;9.192;2023-08-07T08:57:00;8.68;;;2.80;;
11539;SDS011;5826;54.756;9.192;2023-08-07T08:59:26;10.27;;;3.13;;
11539;SDS011;5826;54.756;9.192;2023-08-07T09:01:51;9.77;;;2.78;;
11539;SDS011;5826;54.756;9.192;2023-08-07T09:04:18;6.68;;;2.85;;
11539;SDS011;5826;54.756;9.192;2023-08-07T09:06:44;6.65;;;2.63;;
11539;SDS011;5826;54.756;9.192;2023-08-07T09:09:10;6.00;;;2.50;;
11539;SDS011;5826;54.756;9.192;2023-08-07T09:11:38;6.60;;;2.63;;
11539;SDS011;5826;54.756;9.192;2023-08-07T09:14:06;9.27;;;2.60;;
11539;SDS011;5826;54.756;9.192;2023-08-07T09:16:34;4.97;;;2.38;;
11539;SDS011;5826;54.756;9.192;2023-08-07T09:19:01;5.78;;;2.17;;
11539;SDS011;5826;54.756;9.192;2023-08-07T09:21:26;4.38;;;2.30;;
11539;SDS011;5826;54.756;9.192;2023-08-07T09:23:52;4.57;;;2.05;;
11539;SDS011;5826;54.756;9.192;2023-08-07T09:26:21;7.53;;;2.40;;
11539;SDS011;5826;54.756;9.192;2023-08-07T09:28:49;4.75;;;2.03;;
11539;SDS011;5826;54.756;9.192;2023-08-07T09:31:17;6.30;;;1.83;;
11539;SDS011;5826;54.756;9.192;2023-08-07T09:33:46;5.95;;;2.17;;
11539;SDS011;5826;54.756;9.192;2023-08-07T09:36:12;10.18;;;2.55;;
11539;SDS011;5826;54.756;9.192;2023-08-07T09:38:37;8.48;;;2.72;;
11539;SDS011;5826;54.756;9.192;2023-08-07T09:41:03;6.32;;;2.22;;
11539;SDS011;5826;54.756;9.192;2023-08-07T09:43:29;5.93;;;2.50;;
11539;SDS011;5826;54.756;9.192;2023-08-07T09:46:04;9.48;;;2.72;;
11539;SDS011;5826;54.756;9.192;2023-08-07T09:48:31;8.40;;;2.65;;
11539;SDS011;5826;54.756;9.192;2023-08-07T09:51:00;7.90;;;2.25;;
11539;SDS011;5826;54.756;9.192;2023-08-07T09:53:29;7.43;;;2.67;;
11539;SDS011;5826;54.756;9.192;2023-08-07T09:55:55;4.47;;;2.00;;
11539;SDS011;5826;54.756;9.192;2023-08-07T09:58:20;5.32;;;2.08;;
11539;SDS011;5826;54.756;9.192;2023-08-07T10:00:46;7.65;;;2.35;;
11539;SDS011;5826;54.756;9.192;2023-08-07T10:03:15;5.75;;;2.35;;
11539;SDS011;5826;54.756;9.192;2023-08-07T10:05:42;7.53;;;2.17;;
11539;SDS011;5826;54.756;9.192;2023-08-07T10:08:08;6.95;;;2.40;;
11539;SDS011;5826;54.756;9.192;2023-08-07T10:10:36;7.80;;;2.42;;
11539;SDS011;5826;54.756;9.192;2023-08-07T10:13:03;6.78;;;2.58;;
11539;SDS011;5826;54.756;9.192;2023-08-07T10:15:29;7.60;;;2.60;;
11539;SDS011;5826;54.756;9.192;2023-08-07T10:17:56;8.65;;;2.80;;
11539;SDS011;5826;54.756;9.192;2023-08-07T10:20:22;6.90;;;2.63;;
11539;SDS011;5826;54.756;9.192;2023-08-07T10:22:51;8.25;;;2.67;;
11539;SDS011;5826;54.756;9.192;2023-08-07T10:25:18;7.45;;;2.28;;
11539;SDS011;5826;54.756;9.192;2023-08-07T10:27:46;8.80;;;2.30;;
11539;SDS011;5826;54.756;9.192;2023-08-07T10:30:15;9.18;;;2.70;;
11539;SDS011;5826;54.756;9.192;2023-08-07T10:32:43;9.70;;;3.05;;
11539;SDS011;5826;54.756;9.192;2023-08-07T10:35:10;7.55;;;2.72;;
11539;SDS011;5826;54.756;9.192;2023-08-07T10:37:54;12.23;;;3.40;;
11539;SDS011;5826;54.756;9.192;2023-08-07T10:40:28;9.90;;;2.70;;
11539;SDS011;5826;54.756;9.192;2023-08-07T10:42:57;7.40;;;2.83;;
11539;SDS011;5826;54.756;9.192;2023-08-07T10:45:25;11.68;;;2.80;;
11539;SDS011;5826;54.756;9.192;2023-08-07T10:48:01;9.50;;;2.70;;
11539;SDS011;5826;54.756;9.192;2023-08-07T10:50:34;10.23;;;2.85;;
11539;SDS011;5826;54.756;9.192;2023-08-07T10:53:02;6.65;;;2.45;;
11539;SDS011;5826;54.756;9.192;2023-08-07T10:55:42;10.25;;;3.15;;
11539;SDS011;5826;54.756;9.192;2023-08-07T10:58:20;7.32;;;2.55;;
11539;SDS011;5826;54.756;9.192;2023-08-07T11:00:48;7.45;;;2.55;;
11539;SDS011;5826;54.756;9.192;2023-08-07T11:03:19;10.20;;;2.88;;
11539;SDS011;5826;54.756;9.192;2023-08-07T11:05:57;7.03;;;2.63;;
11539;SDS011;5826;54.756;9.192;2023-08-07T11:08:23;9.82;;;2.80;;
11539;SDS011;5826;54.756;9.192;2023-08-07T11:10:50;6.43;;;2.75;;
11539;SDS011;5826;54.756;9.192;2023-08-07T11:13:16;7.57;;;2.95;;
11539;SDS011;5826;54.756;9.192;2023-08-07T11:15:42;8.07;;;2.90;;
11539;SDS011;5826;54.756;9.192;2023-08-07T11:18:08;9.13;;;2.70;;
11539;SDS011;5826;54.756;9.192;2023-08-07T11:20:35;8.32;;;2.65;;
11539;SDS011;5826;54.756;9.192;2023-08-07T11:23:03;6.47;;;2.50;;
11539;SDS011;5826;54.756;9.192;2023-08-07T11:25:30;7.38;;;2.58;;
11539;SDS011;5826;54.756;9.192;2023-08-07T11:27:56;4.70;;;2.30;;
11539;SDS011;5826;54.756;9.192;2023-08-07T11:30:21;8.10;;;2.63;;
11539;SDS011;5826;54.756;9.192;2023-08-07T11:32:47;8.80;;;2.65;;
11539;SDS011;5826;54.756;9.192;2023-08-07T11:35:12;7.60;;;2.50;;
11539;SDS011;5826;54.756;9.192;2023-08-07T11:37:45;7.80;;;2.72;;
11539;SDS011;5826;54.756;9.192;2023-08-07T11:40:13;9.35;;;2.70;;
11539;SDS011;5826;54.756;9.192;2023-08-07T11:42:40;7.25;;;2.53;;
11539;SDS011;5826;54.756;9.192;2023-08-07T11:45:06;8.63;;;2.63;;
11539;SDS011;5826;54.756;9.192;2023-08-07T11:47:32;7.15;;;2.60;;
11539;SDS011;5826;54.756;9.192;2023-08-07T11:49:58;7.57;;;2.38;;
11539;SDS011;5826;54.756;9.192;2023-08-07T11:52:24;7.40;;;2.53;;
11539;SDS011;5826;54.756;9.192;2023-08-07T11:54:50;7.05;;;2.45;;
11539;SDS011;5826;54.756;9.192;2023-08-07T11:57:17;10.63;;;2.58;;
11539;SDS011;5826;54.756;9.192;2023-08-07T11:59:47;6.03;;;2.35;;
11539;SDS011;5826;54.756;9.192;2023-08-07T12:02:13;5.43;;;2.08;;
11539;SDS011;5826;54.756;9.192;2023-08-07T12:04:39;8.52;;;2.50;;
11539;SDS011;5826;54.756;9.192;2023-08-07T12:07:05;7.10;;;2.70;;
11539;SDS011;5826;54.756;9.192;2023-08-07T12:09:30;7.72;;;2.63;;
11539;SDS011;5826;54.756;9.192;2023-08-07T12:11:56;5.93;;;2.17;;
11539;SDS011;5826;54.756;9.192;2023-08-07T12:14:23;5.72;;;2.28;;
11539;SDS011;5826;54.756;9.192;2023-08-07T12:16:54;6.53;;;2.35;;
11539;SDS011;5826;54.756;9.192;2023-08-07T12:19:20;8.50;;;2.33;;
11539;SDS011;5826;54.756;9.192;2023-08-07T12:21:45;7.28;;;2.40;;
11539;SDS011;5826;54.756;9.192;2023-08-07T12:24:11;6.53;;;2.40;;
11539;SDS011;5826;54.756;9.192;2023-08-07T12:26:38;6.78;;;2.40;;
11539;SDS011;5826;54.756;9.192;2023-08-07T12:29:03;6.28;;;2.72;;
11539;SDS011;5826;54.756;9.192;2023-08-07T12:31:29;5.85;;;2.35;;
11539;SDS011;5826;54.756;9.192;2023-08-07T12:33:54;8.05;;;2.75;;
11539;SDS011;5826;54.756;9.192;2023-08-07T12:36:20;9.35;;;3.05;;
11539;SDS011;5826;54.756;9.192;2023-08-07T12:38:45;7.03;;;2.45;;
11539;SDS011;5826;54.756;9.192;2023-08-07T12:41:11;9.80;;;3.08;;
11539;SDS011;5826;54.756;9.192;2023-08-07T12:43:37;10.73;;;2.97;;
11539;SDS011;5826;54.756;9.192;2023-08-07T12:46:02;12.45;;;3.42;;
11539;SDS011;5826;54.756;9.192;2023-08-07T12:48:27;7.80;;;2.88;;
11539;SDS011;5826;54.756;9.192;2023-08-07T12:50:53;9.70;;;2.95;;
11539;SDS011;5826;54.756;9.192;2023-08-07T12:53:19;12.20;;;3.33;;
11539;SDS011;5826;54.756;9.192;2023-08-07T12:55:44;6.40;;;2.63;;
11539;SDS011;5826;54.756;9.192;2023-08-07T12:58:10;7.90;;;2.45;;
11539;SDS011;5826;54.756;9.192;2023-08-07T13:00:36;7.30;;;2.72;;
11539;SDS011;5826;54.756;9.192;2023-08-07T13:03:01;5.68;;;2.33;;
11539;SDS011;5826;54.756;9.192;2023-08-07T13:05:27;5.93;;;2.40;;
11539;SDS011;5826;54.756;9.192;2023-08-07T13:07:54;7.70;;;2.90;;
11539;SDS011;5826;54.756;9.192;2023-08-07T13:10:23;5.93;;;2.45;;
11539;SDS011;5826;54.756;9.192;2023-08-07T13:12:49;9.20;;;2.40;;
11539;SDS011;5826;54.756;9.192;2023-08-07T13:15:15;8.68;;;2.78;;
11539;SDS011;5826;54.756;9.192;2023-08-07T13:17:42;5.75;;;2.35;;
11539;SDS011;5826;54.756;9.192;2023-08-07T13:20:09;7.68;;;2.40;;
11539;SDS011;5826;54.756;9.192;2023-08-07T13:22:37;7.35;;;2.38;;
11539;SDS011;5826;54.756;9.192;2023-08-07T13:25:05;6.78;;;2.45;;
11539;SDS011;5826;54.756;9.192;2023-08-07T13:27:32;5.72;;;2.28;;
11539;SDS011;5826;54.756;9.192;2023-08-07T13:29:58;6.50;;;2.30;;
11539;SDS011;5826;54.756;9.192;2023-08-07T13:32:24;5.05;;;2.22;;
11539;SDS011;5826;54.756;9.192;2023-08-07T13:34:50;7.65;;;2.78;;
11539;SDS011;5826;54.756;9.192;2023-08-07T13:37:16;7.70;;;2.50;;
11539;SDS011;5826;54.756;9.192;2023-08-07T13:39:42;8.30;;;2.55;;
11539;SDS011;5826;54.756;9.192;2023-08-07T13:42:07;7.13;;;2.58;;
11539;SDS011;5826;54.756;9.192;2023-08-07T13:44:33;7.20;;;2.08;;
11539;SDS011;5826;54.756;9.192;2023-08-07T13:46:59;5.15;;;1.80;;
11539;SDS011;5826;54.756;9.192;2023-08-07T13:49:24;9.48;;;2.35;;
11539;SDS011;5826;54.756;9.192;2023-08-07T13:51:50;8.05;;;2.20;;
11539;SDS011;5826;54.756;9.192;2023-08-07T13:54:16;5.35;;;1.98;;
11539;SDS011;5826;54.756;9.192;2023-08-07T13:56:41;6.82;;;2.03;;
11539;SDS011;5826;54.756;9.192;2023-08-07T13:59:07;4.75;;;2.08;;
11539;SDS011;5826;54.756;9.192;2023-08-07T14:01:33;5.70;;;2.22;;
11539;SDS011;5826;54.756;9.192;2023-08-07T14:04:00;7.70;;;2.38;;
11539;SDS011;5826;54.756;9.192;2023-08-07T14:06:26;5.43;;;2.00;;
11539;SDS011;5826;54.756;9.192;2023-08-07T14:08:52;8.75;;;2.45;;
11539;SDS011;5826;54.756;9.192;2023-08-07T14:11:17;6.05;;;2.10;;
11539;SDS011;5826;54.756;9.192;2023-08-07T14:13:44;9.43;;;2.60;;
11539;SDS011;5826;54.756;9.192;2023-08-07T14:16:10;8.52;;;2.30;;
11539;SDS011;5826;54.756;9.192;2023-08-07T14:18:36;5.63;;;2.20;;
11539;SDS011;5826;54.756;9.192;2023-08-07T14:21:01;4.28;;;2.17;;
11539;SDS011;5826;54.756;9.192;2023-08-07T14:23:27;4.65;;;1.90;;
11539;SDS011;5826;54.756;9.192;2023-08-07T14:25:52;4.93;;;1.88;;
11539;SDS011;5826;54.756;9.192;2023-08-07T14:28:18;7.40;;;2.15;;
11539;SDS011;5826;54.756;9.192;2023-08-07T14:30:44;6.47;;;2.10;;
11539;SDS011;5826;54.756;9.192;2023-08-07T14:33:10;6.80;;;2.25;;
11539;SDS011;5826;54.756;9.192;2023-08-07T14:35:35;4.90;;;2.00;;
11539;SDS011;5826;54.756;9.192;2023-08-07T14:38:01;6.20;;;2.22;;
11539;SDS011;5826;54.756;9.192;2023-08-07T14:40:26;8.18;;;2.35;;
11539;SDS011;5826;54.756;9.192;2023-08-07T14:42:53;3.83;;;1.67;;
11539;SDS011;5826;54.756;9.192;2023-08-07T14:45:18;5.95;;;1.85;;
11539;SDS011;5826;54.756;9.192;2023-08-07T14:47:45;7.13;;;1.92;;
11539;SDS011;5826;54.756;9.192;2023-08-07T14:50:10;7.15;;;2.35;;
11539;SDS011;5826;54.756;9.192;2023-08-07T14:52:36;5.97;;;2.25;;
11539;SDS011;5826;54.756;9.192;2023-08-07T14:55:02;6.63;;;2.05;;
11539;SDS011;5826;54.756;9.192;2023-08-07T14:57:28;6.25;;;1.90;;